createdAt,value
2022-10-22T00:03:25.963Z,13.00
2022-10-22T00:08:28.708Z,12.79
2022-10-22T00:13:30.897Z,12.85
2022-10-22T00:18:33.249Z,12.69
2022-10-22T00:23:36.021Z,12.78
2022-10-22T00:28:39.081Z,12.76
2022-10-22T00:33:42.164Z,12.67
2022-10-22T00:38:44.410Z,12.62
2022-10-22T00:43:59.558Z,12.60
2022-10-22T00:49:04.686Z,12.56
2022-10-22T00:54:09.207Z,12.44
2022-10-22T00:59:14.375Z,12.40
2022-10-22T01:04:17.488Z,12.44
2022-10-22T01:09:37.134Z,12.32
2022-10-22T01:14:57.507Z,12.32
2022-10-22T01:20:18.272Z,12.16
2022-10-22T01:25:38.868Z,12.08
2022-10-22T01:30:42.842Z,11.77
2022-10-22T01:35:46.072Z,12.03
2022-10-22T01:40:49.989Z,11.85
2022-10-22T01:45:57.098Z,11.81
2022-10-22T01:51:29.970Z,11.99
2022-10-22T01:57:01.286Z,12.08
2022-10-22T02:02:12.410Z,12.06
2022-10-22T02:07:18.887Z,12.08
2022-10-22T02:12:23.312Z,12.01
2022-10-22T02:17:29.730Z,11.98
2022-10-22T02:22:32.644Z,12.04
2022-10-22T02:27:45.913Z,11.84
2022-10-22T02:32:54.747Z,11.90
2022-10-22T02:37:58.985Z,11.78
2022-10-22T02:43:01.409Z,11.74
2022-10-22T02:48:04.459Z,11.82
2022-10-22T02:53:06.720Z,11.76
2022-10-22T02:58:08.946Z,11.73
2022-10-22T03:03:11.333Z,11.76
2022-10-22T03:08:13.605Z,11.57
2022-10-22T03:13:15.957Z,11.67
2022-10-22T03:18:18.674Z,11.39
2022-10-22T03:23:21.048Z,11.75
2022-10-22T03:28:23.462Z,11.75
2022-10-22T03:33:25.724Z,11.68
2022-10-22T03:38:27.975Z,11.63
2022-10-22T03:43:30.255Z,11.61
2022-10-22T03:48:32.503Z,11.60
2022-10-22T03:53:34.930Z,11.65
2022-10-22T03:58:38.778Z,11.58
2022-10-22T04:03:41.567Z,11.53
2022-10-22T04:08:45.306Z,11.56
2022-10-22T04:13:47.562Z,11.35
2022-10-22T04:18:50.817Z,11.64
2022-10-22T04:23:54.103Z,11.51
2022-10-22T04:28:56.406Z,11.48
2022-10-22T04:34:00.878Z,11.61
2022-10-22T04:39:04.263Z,11.57
2022-10-22T04:44:11.101Z,11.46
2022-10-22T04:49:19.152Z,11.13
2022-10-22T04:54:21.498Z,11.00
2022-10-22T04:59:23.870Z,11.08
2022-10-22T05:04:26.190Z,11.05
2022-10-22T05:09:28.603Z,11.05
2022-10-22T05:14:30.846Z,11.05
2022-10-22T05:19:33.839Z,11.14
2022-10-22T05:24:37.617Z,11.03
2022-10-22T05:29:39.943Z,11.12
2022-10-22T05:34:42.143Z,11.20
2022-10-22T05:39:44.342Z,11.12
2022-10-22T05:44:46.526Z,11.23
2022-10-22T05:49:49.585Z,11.29
2022-10-22T05:54:52.027Z,11.37
2022-10-22T05:59:54.205Z,11.54
2022-10-22T06:04:56.449Z,11.66
2022-10-22T06:10:00.002Z,11.89
2022-10-22T06:15:02.251Z,11.85
2022-10-22T06:25:13.167Z,12.20
2022-10-22T06:30:15.451Z,12.45
2022-10-22T06:35:17.853Z,12.62
2022-10-22T06:40:20.177Z,12.54
2022-10-22T06:45:22.595Z,12.74
2022-10-22T06:50:25.028Z,12.92
2022-10-22T06:55:27.329Z,12.89
2022-10-22T07:00:29.783Z,13.20
2022-10-22T07:05:34.686Z,13.49
2022-10-22T07:10:36.909Z,13.44
2022-10-22T07:15:39.130Z,13.68
2022-10-22T07:20:41.411Z,13.76
2022-10-22T07:25:43.860Z,13.93
2022-10-22T07:30:46.578Z,14.08
2022-10-22T07:35:49.199Z,14.16
2022-10-22T07:40:51.498Z,14.34
2022-10-22T07:45:56.201Z,14.48
2022-10-22T07:50:58.793Z,14.51
2022-10-22T07:56:01.269Z,14.62
2022-10-22T08:01:06.339Z,14.71
2022-10-22T08:06:09.953Z,14.96
2022-10-22T08:11:12.963Z,15.23
2022-10-22T08:16:15.919Z,15.29
2022-10-22T08:21:18.325Z,15.43
2022-10-22T08:26:21.620Z,15.53
2022-10-22T08:31:25.403Z,15.54
2022-10-22T08:36:27.821Z,15.96
2022-10-22T08:41:30.418Z,16.15
2022-10-22T08:47:01.542Z,16.27
2022-10-22T08:52:04.310Z,16.51
2022-10-22T08:57:09.521Z,16.61
2022-10-22T09:02:39.736Z,16.70
2022-10-22T09:07:50.399Z,16.76
2022-10-22T09:12:53.092Z,16.87
2022-10-22T09:18:05.232Z,17.11
2022-10-22T09:23:22.438Z,17.34
2022-10-22T09:28:25.070Z,17.49
2022-10-22T09:33:31.257Z,17.53
2022-10-22T09:38:39.517Z,17.64
2022-10-22T09:43:41.910Z,17.81
2022-10-22T09:48:49.485Z,17.66
2022-10-22T09:54:00.526Z,18.16
2022-10-22T09:59:03.784Z,18.30
2022-10-22T10:04:10.005Z,18.44
2022-10-22T10:09:18.614Z,18.45
2022-10-22T10:14:39.052Z,18.50
2022-10-22T10:19:47.964Z,18.63
2022-10-22T10:25:11.912Z,18.83
2022-10-22T10:30:18.494Z,19.02
2022-10-22T10:35:26.657Z,19.20
2022-10-22T10:40:52.131Z,19.40
2022-10-22T10:46:13.022Z,19.57
2022-10-22T10:51:47.561Z,19.67
2022-10-22T10:56:56.373Z,19.62
2022-10-22T11:02:20.327Z,19.64
2022-10-22T11:07:34.762Z,19.59
2022-10-22T11:12:43.339Z,19.49
2022-10-22T11:17:49.399Z,19.83
2022-10-22T11:23:21.044Z,19.97
2022-10-22T11:28:34.626Z,20.18
2022-10-22T11:33:57.309Z,20.26
2022-10-22T11:39:07.511Z,20.52
2022-10-22T11:44:21.332Z,20.67
2022-10-22T11:49:41.839Z,20.69
2022-10-22T11:54:45.588Z,20.74
2022-10-22T11:59:50.141Z,20.96
2022-10-22T12:04:52.465Z,21.04
2022-10-22T12:09:54.893Z,21.07
2022-10-22T12:14:58.611Z,21.19
2022-10-22T12:20:14.248Z,21.41
2022-10-22T12:25:26.258Z,21.66
2022-10-22T12:30:32.215Z,21.64
2022-10-22T12:35:43.857Z,21.72
2022-10-22T12:40:48.707Z,21.63
2022-10-22T12:45:53.330Z,21.79
2022-10-22T12:50:59.627Z,22.00
2022-10-22T12:56:05.578Z,22.14
2022-10-22T13:01:11.149Z,22.28
2022-10-22T13:06:19.474Z,22.49
2022-10-22T13:11:21.989Z,22.52
2022-10-22T13:16:26.671Z,22.75
2022-10-22T13:21:39.165Z,22.94
2022-10-22T13:26:41.430Z,23.16
2022-10-22T13:31:53.177Z,23.18
2022-10-22T13:36:55.790Z,23.10
2022-10-22T13:41:58.641Z,23.11
2022-10-22T13:47:01.213Z,22.59
2022-10-22T13:52:06.085Z,23.29
2022-10-22T13:57:11.302Z,22.92
2022-10-22T14:02:14.797Z,23.91
2022-10-22T14:07:17.869Z,23.71
2022-10-22T14:12:23.433Z,23.92
2022-10-22T14:17:32.379Z,24.11
2022-10-22T14:22:34.977Z,23.87
2022-10-22T14:27:39.096Z,24.21
2022-10-22T14:32:42.037Z,23.49
2022-10-22T14:37:45.198Z,24.31
2022-10-22T14:42:49.849Z,24.59
2022-10-22T14:47:56.157Z,23.52
2022-10-22T14:53:00.646Z,23.56
2022-10-22T14:58:03.331Z,23.18
2022-10-22T15:03:05.833Z,23.27
2022-10-22T15:08:08.508Z,22.58
2022-10-22T15:13:11.021Z,22.57
2022-10-22T15:18:13.447Z,21.86
2022-10-22T15:23:15.851Z,22.20
2022-10-22T15:28:18.350Z,21.49
2022-10-22T15:33:21.088Z,21.53
2022-10-22T15:43:32.502Z,21.26
2022-10-22T15:48:34.849Z,20.88
2022-10-22T15:53:37.409Z,20.98
2022-10-22T15:58:40.750Z,20.15
2022-10-22T16:03:43.668Z,20.44
2022-10-22T16:08:49.487Z,19.23
2022-10-22T16:13:59.931Z,19.16
2022-10-22T16:19:03.443Z,19.04
2022-10-22T16:24:07.276Z,19.62
2022-10-22T16:29:12.042Z,18.50
2022-10-22T16:34:14.627Z,18.50
2022-10-22T16:39:17.518Z,18.49
2022-10-22T16:44:19.982Z,18.65
2022-10-22T16:49:22.810Z,18.55
2022-10-22T16:54:25.200Z,17.76
2022-10-22T16:59:28.466Z,18.53
2022-10-22T17:04:31.945Z,17.64
2022-10-22T17:09:34.750Z,17.86
2022-10-22T17:14:37.991Z,17.58
2022-10-22T17:19:41.033Z,18.21
2022-10-22T17:24:44.723Z,17.85
2022-10-22T17:29:47.824Z,17.93
2022-10-22T17:34:50.922Z,17.49
2022-10-22T17:39:53.687Z,17.64
2022-10-22T17:44:56.886Z,17.48
2022-10-22T17:50:00.993Z,17.47
2022-10-22T17:55:05.098Z,17.66
2022-10-22T18:00:08.984Z,17.41
2022-10-22T18:05:13.283Z,17.45
2022-10-22T18:10:16.342Z,17.12
2022-10-22T18:15:36.844Z,17.76
2022-10-22T18:20:40.588Z,16.89
2022-10-22T18:25:43.807Z,17.17
2022-10-22T18:30:48.569Z,16.78
2022-10-22T18:35:55.920Z,16.66
2022-10-22T18:40:59.049Z,16.72
2022-10-22T18:46:03.183Z,16.86
2022-10-22T18:51:09.522Z,16.52
2022-10-22T18:56:13.200Z,16.51
2022-10-22T19:01:20.409Z,16.46
2022-10-22T19:06:34.415Z,15.92
2022-10-22T19:11:39.633Z,16.34
2022-10-22T19:16:42.793Z,16.31
2022-10-22T19:21:45.860Z,16.26
2022-10-22T19:26:51.290Z,16.09
2022-10-22T19:31:55.574Z,16.32
2022-10-22T19:36:59.867Z,16.61
2022-10-22T19:42:04.810Z,16.43
2022-10-22T19:47:07.385Z,16.38
2022-10-22T19:52:10.395Z,16.24
2022-10-22T19:57:17.277Z,15.74
2022-10-22T20:02:19.890Z,15.82
2022-10-22T20:07:23.038Z,16.06
2022-10-22T20:12:25.566Z,15.24
2022-10-22T20:17:28.684Z,15.38
2022-10-22T20:22:31.363Z,15.52
2022-10-22T20:27:34.006Z,15.51
2022-10-22T20:32:41.093Z,15.51
2022-10-22T20:37:43.934Z,15.56
2022-10-22T20:42:48.228Z,15.29
2022-10-22T20:47:58.690Z,15.30
2022-10-22T20:53:05.645Z,15.07
2022-10-22T20:58:08.548Z,15.06
2022-10-22T21:03:11.807Z,15.29
2022-10-22T21:08:17.897Z,15.11
2022-10-22T21:13:20.348Z,14.84
2022-10-22T21:18:22.730Z,15.27
2022-10-22T21:23:25.166Z,14.96
2022-10-22T21:33:31.662Z,14.96
2022-10-22T21:38:35.268Z,14.78
2022-10-22T21:43:39.203Z,14.72
2022-10-22T21:48:41.516Z,14.81
2022-10-22T21:53:44.776Z,14.42
2022-10-22T21:58:48.543Z,14.86
2022-10-22T22:03:53.316Z,14.83
2022-10-22T22:08:56.176Z,14.48
2022-10-22T22:13:59.397Z,14.56
2022-10-22T22:24:13.712Z,14.06
2022-10-22T22:29:16.001Z,14.11
2022-10-22T22:34:18.711Z,13.87
2022-10-22T22:39:26.039Z,13.88
2022-10-22T22:44:28.445Z,14.09
2022-10-22T22:49:30.789Z,13.73
2022-10-22T22:54:33.174Z,13.79
2022-10-22T22:59:35.670Z,13.74
2022-10-22T23:04:38.125Z,13.61
2022-10-22T23:09:40.593Z,13.90
2022-10-22T23:14:42.915Z,13.98
2022-10-22T23:19:45.414Z,13.91
2022-10-22T23:24:47.788Z,14.01
2022-10-22T23:29:50.331Z,13.62
2022-10-22T23:34:52.742Z,14.05
2022-10-22T23:39:55.282Z,13.39
2022-10-22T23:44:57.636Z,13.27
2022-10-22T23:49:59.925Z,13.99
2022-10-22T23:55:02.351Z,14.12
